Time;durP1;ratioP1;P1;durP2;ratioP2;P2;SDS_P1;SDS_P2;PMS_P1;PMS_P2;Temp;Humidity;BMP_temperature;BMP_pressure;BME280_temperature;BME280_humidity;BME280_pressure;Samples;Min_cycle;Max_cycle;Signal;HPM_P1;HPM_P2
2023/09/17 00:01:11;;;;;;;22.40;18.02;;;15.10;99.90;;;;;;5115737;27;20039;-71
2023/09/17 00:03:37;;;;;;;27.23;20.38;;;16.60;99.90;;;;;;5099001;28;20039;-71
2023/09/17 00:06:04;;;;;;;24.75;19.98;;;;;;;;;;5115837;27;20046;-71
2023/09/17 00:08:30;;;;;;;25.65;20.40;;;;;;;;;;5115922;27;20047;-71
2023/09/17 00:10:56;;;;;;;28.95;21.65;;;;;;;;;;5099213;27;20386;-71
2023/09/17 00:13:22;;;;;;;27.67;19.95;;;16.30;99.90;;;;;;5099196;27;20448;-71
2023/09/17 00:15:48;;;;;;;27.52;21.45;;;15.60;99.90;;;;;;5099116;28;20074;-71
2023/09/17 00:18:16;;;;;;;25.38;20.08;;;;;;;;;;5115701;28;20122;-71
2023/09/17 00:20:42;;;;;;;26.98;21.48;;;15.70;99.90;;;;;;5115777;28;20040;-70
2023/09/17 00:23:08;;;;;;;27.40;20.67;;;14.80;99.90;;;;;;5115726;28;20046;-71
2023/09/17 00:25:34;;;;;;;28.83;20.85;;;14.30;99.90;;;;;;5134036;28;20035;-70
2023/09/17 00:28:01;;;;;;;26.55;20.60;;;;;;;;;;5082405;28;20035;-71
2023/09/17 00:30:27;;;;;;;28.88;21.13;;;15.10;99.90;;;;;;5115569;28;20035;-70
2023/09/17 00:32:53;;;;;;;30.40;21.95;;;14.30;99.90;;;;;;5115994;28;20043;-70
2023/09/17 00:35:19;;;;;;;24.27;20.70;;;;;;;;;;5082097;28;20092;-71
2023/09/17 00:37:45;;;;;;;24.92;20.15;;;16.10;99.90;;;;;;5098549;28;20100;-70
2023/09/17 00:40:11;;;;;;;28.05;21.55;;;16.50;99.90;;;;;;5134045;28;20047;-71
2023/09/17 00:42:38;;;;;;;25.63;19.13;;;16.10;99.90;;;;;;5098757;28;20043;-71
2023/09/17 00:45:05;;;;;;;25.75;20.42;;;;;;;;;;5115423;28;20399;-71
2023/09/17 00:47:31;;;;;;;27.15;19.50;;;14.10;99.90;;;;;;5115713;28;20491;-71
2023/09/17 00:49:58;;;;;;;20.17;17.80;;;;;;;;;;5116564;27;20042;-70
2023/09/17 00:52:24;;;;;;;24.30;18.35;;;;;;;;;;5102581;27;20043;-70
2023/09/17 00:54:51;;;;;;;24.73;19.35;;;14.50;99.90;;;;;;5119468;27;20043;-70
2023/09/17 00:57:17;;;;;;;26.30;19.80;;;14.80;99.90;;;;;;5119562;27;20065;-70
2023/09/17 00:59:44;;;;;;;23.63;19.23;;;;;;;;;;5102544;27;20050;-71
2023/09/17 01:02:11;;;;;;;24.02;19.85;;;15.90;99.90;;;;;;5119334;27;20051;-70
2023/09/17 01:04:40;;;;;;;25.75;18.55;;;15.30;99.90;;;;;;5119069;27;20051;-71
2023/09/17 01:07:07;;;;;;;20.58;16.67;;;14.70;99.90;;;;;;5119635;27;20035;-76
2023/09/17 01:09:34;;;;;;;24.73;18.55;;;;;;;;;;5102398;27;20051;-76
2023/09/17 01:12:00;;;;;;;30.48;20.60;;;15.50;99.90;;;;;;5119067;27;20055;-76
2023/09/17 01:14:26;;;;;;;23.35;20.20;;;16.40;99.90;;;;;;5119084;27;20046;-76
2023/09/17 01:16:54;;;;;;;24.85;20.30;;;15.00;99.90;;;;;;5119104;27;20084;-76
2023/09/17 01:19:28;;;;;;;27.30;21.10;;;14.40;99.90;;;;;;5102165;27;20034;-76
2023/09/17 01:22:03;;;;;;;23.98;19.92;;;15.90;99.90;;;;;;5102448;27;20043;-70
2023/09/17 01:24:33;;;;;;;25.92;21.02;;;14.10;99.90;;;;;;5119034;27;20104;-71
2023/09/17 01:26:59;;;;;;;26.70;20.55;;;14.20;99.90;;;;;;5119001;27;20043;-70
2023/09/17 01:29:26;;;;;;;30.35;21.48;;;14.50;99.90;;;;;;5119491;27;20043;-70
2023/09/17 01:31:55;;;;;;;31.58;22.90;;;16.40;99.90;;;;;;5102278;27;20447;-70
2023/09/17 01:34:22;;;;;;;31.75;22.67;;;;;;;;;;5101855;27;20483;-70
2023/09/17 01:36:48;;;;;;;29.63;23.23;;;;;;;;;;5119124;27;20392;-70
2023/09/17 01:39:23;;;;;;;33.75;22.98;;;16.50;99.90;;;;;;5107470;27;20042;-71
2023/09/17 01:41:50;;;;;;;28.98;22.70;;;14.20;99.90;;;;;;5143660;27;20031;-71
2023/09/17 01:44:17;;;;;;;32.03;22.77;;;14.20;99.90;;;;;;5139612;27;20050;-70
2023/09/17 01:46:44;;;;;;;31.13;23.85;;;14.50;99.90;;;;;;5140125;27;20058;-71
2023/09/17 01:49:11;;;;;;;27.92;23.13;;;16.50;99.90;;;;;;5113890;27;20460;-70
2023/09/17 01:51:39;;;;;;;31.63;23.52;;;15.30;99.90;;;;;;5132791;27;20055;-71
2023/09/17 01:54:05;;;;;;;29.33;23.33;;;14.50;99.90;;;;;;5126735;27;20475;-71
2023/09/17 01:56:34;;;;;;;27.80;22.13;;;15.20;99.90;;;;;;5101887;27;20039;-70
2023/09/17 01:59:00;;;;;;;32.58;22.63;;;16.50;99.90;;;;;;5101254;27;20046;-70
2023/09/17 02:01:27;;;;;;;28.85;24.40;;;;;;;;;;5083374;27;20032;-70
2023/09/17 02:03:53;;;;;;;29.88;24.15;;;16.20;99.90;;;;;;5118288;27;20487;-70
2023/09/17 02:06:19;;;;;;;31.55;24.10;;;16.10;99.90;;;;;;5100854;27;20061;-71
2023/09/17 02:08:45;;;;;;;36.33;24.35;;;;;;;;;;5118003;27;20035;-76
2023/09/17 02:11:11;;;;;;;29.13;23.27;;;;;;;;;;5118001;27;20039;-70
2023/09/17 02:13:36;;;;;;;33.25;23.25;;;15.90;99.90;;;;;;5118316;27;20122;-71
2023/09/17 02:16:03;;;;;;;32.30;23.15;;;;;;;;;;5100956;27;20518;-70
2023/09/17 02:18:29;;;;;;;27.85;23.10;;;;;;;;;;5117931;27;20039;-70
2023/09/17 02:20:55;;;;;;;30.58;23.33;;;;;;;;;;5117884;27;20423;-70
2023/09/17 02:23:21;;;;;;;31.80;23.27;;;;;;;;;;5100685;27;20123;-70
2023/09/17 02:25:47;;;;;;;30.45;24.88;;;;;;;;;;5100700;27;20039;-75
2023/09/17 02:28:13;;;;;;;27.23;22.40;;;;;;;;;;5117692;27;20066;-75
2023/09/17 02:30:39;;;;;;;28.70;23.85;;;;;;;;;;5117668;27;20043;-75
2023/09/17 02:33:06;;;;;;;29.23;22.98;;;14.60;99.90;;;;;;5117758;27;20031;-74
2023/09/17 02:35:33;;;;;;;29.58;23.20;;;;;;;;;;5117621;27;20508;-75
2023/09/17 02:37:59;;;;;;;32.95;24.08;;;16.40;99.90;;;;;;5100754;27;20100;-75
2023/09/17 02:40:24;;;;;;;32.45;25.45;;;15.90;99.90;;;;;;5117336;27;20039;-75
2023/09/17 02:42:51;;;;;;;34.55;24.65;;;;;;;;;;5100684;27;20079;-75
2023/09/17 02:45:18;;;;;;;36.75;26.52;;;16.00;99.90;;;;;;5117488;27;20331;-75
2023/09/17 02:47:44;;;;;;;35.28;27.27;;;;;;;;;;5117277;27;20039;-75
2023/09/17 02:50:10;;;;;;;33.50;25.88;;;15.40;99.90;;;;;;5116021;27;20052;-75
2023/09/17 02:52:36;;;;;;;30.90;22.60;;;15.20;99.90;;;;;;5116924;27;20058;-76
2023/09/17 02:55:04;;;;;;;33.75;25.85;;;14.70;99.90;;;;;;5100065;27;20039;-75
2023/09/17 02:57:30;;;;;;;37.10;27.02;;;14.60;99.90;;;;;;5100012;27;20555;-75
2023/09/17 02:59:56;;;;;;;39.88;28.88;;;14.80;99.90;;;;;;5099933;27;20039;-75
2023/09/17 03:02:22;;;;;;;38.20;27.67;;;16.90;99.90;;;;;;5116726;27;20039;-75
2023/09/17 03:04:48;;;;;;;36.30;28.13;;;;;;;;;;5117077;27;20100;-75
2023/09/17 03:07:17;;;;;;;37.63;27.42;;;17.00;99.90;;;;;;5116828;27;20035;-75
2023/09/17 03:09:43;;;;;;;35.72;26.27;;;;;;;;;;5117018;27;20398;-75
2023/09/17 03:12:10;;;;;;;37.53;28.33;;;17.00;99.90;;;;;;5099635;27;20046;-75
2023/09/17 03:14:36;;;;;;;40.75;29.88;;;;;;;;;;5099650;27;20165;-75
2023/09/17 03:17:05;;;;;;;39.40;28.25;;;;;;;;;;5099660;27;20039;-75
2023/09/17 03:19:31;;;;;;;39.25;28.77;;;;;;;;;;5116987;27;20146;-75
2023/09/17 03:21:57;;;;;;;37.38;27.60;;;15.40;99.90;;;;;;5116713;27;20039;-76
2023/09/17 03:24:23;;;;;;;41.38;28.92;;;;;;;;;;5116423;27;20084;-75
2023/09/17 03:26:49;;;;;;;37.53;28.92;;;17.10;99.90;;;;;;5082531;27;20122;-75
2023/09/17 03:29:15;;;;;;;37.65;28.70;;;;;;;;;;5116494;27;20050;-75
2023/09/17 03:31:41;;;;;;;39.88;27.45;;;16.50;99.90;;;;;;5116338;27;20402;-76
2023/09/17 03:34:08;;;;;;;36.25;27.15;;;;;;;;;;5099317;27;20046;-76
2023/09/17 03:36:35;;;;;;;39.83;29.05;;;;;;;;;;5116229;27;20047;-75
2023/09/17 03:39:01;;;;;;;37.05;27.50;;;;;;;;;;5116550;27;20070;-75
2023/09/17 03:41:27;;;;;;;40.33;28.63;;;;;;;;;;5116305;27;20482;-75
2023/09/17 03:43:53;;;;;;;41.03;30.77;;;;;;;;;;5116018;27;20118;-75
2023/09/17 03:46:19;;;;;;;35.88;27.67;;;;;;;;;;5099126;27;20057;-75
2023/09/17 03:48:46;;;;;;;39.50;28.08;;;17.10;99.90;;;;;;5116074;27;20046;-75
2023/09/17 03:51:12;;;;;;;37.05;28.08;;;17.00;99.90;;;;;;5115924;27;20035;-75
2023/09/17 03:53:39;;;;;;;37.28;28.75;;;15.00;99.90;;;;;;5134096;27;20138;-75
2023/09/17 03:56:05;;;;;;;30.23;24.23;;;;;;;;;;5099156;27;20047;-76
2023/09/17 03:58:31;;;;;;;38.35;27.02;;;;;;;;;;5098927;27;20045;-75
2023/09/17 04:00:57;;;;;;;38.30;26.25;;;;;;;;;;5115806;27;20039;-75
2023/09/17 04:03:25;;;;;;;40.63;27.83;;;;;;;;;;5115805;28;20035;-75
2023/09/17 04:05:51;;;;;;;35.60;26.52;;;15.10;99.90;;;;;;5115824;27;20146;-75
2023/09/17 04:08:17;;;;;;;37.60;27.40;;;;;;;;;;5115837;27;20562;-75
2023/09/17 04:10:43;;;;;;;38.80;28.55;;;;;;;;;;5116105;27;20035;-75
2023/09/17 04:13:10;;;;;;;36.80;28.23;;;;;;;;;;5098740;27;20050;-75
2023/09/17 04:15:36;;;;;;;35.10;27.90;;;15.00;99.90;;;;;;5116044;28;20055;-75
2023/09/17 04:18:04;;;;;;;32.17;23.33;;;17.20;99.90;;;;;;5115679;28;20395;-75
2023/09/17 04:20:30;;;;;;;36.53;27.60;;;15.50;99.90;;;;;;5116010;28;20042;-75
2023/09/17 04:22:56;;;;;;;35.63;26.98;;;;;;;;;;5115777;28;20391;-70
2023/09/17 04:25:25;;;;;;;38.72;28.33;;;;;;;;;;5117721;27;20076;-70
2023/09/17 04:27:51;;;;;;;35.83;27.40;;;16.20;99.90;;;;;;5102904;27;20387;-70
2023/09/17 04:30:17;;;;;;;32.35;25.33;;;;;;;;;;5120025;27;20096;-70
2023/09/17 04:32:45;;;;;;;37.67;25.90;;;16.20;99.90;;;;;;5120189;27;20512;-70
2023/09/17 04:35:12;;;;;;;33.20;25.38;;;16.00;99.90;;;;;;5119822;27;20184;-70
2023/09/17 04:37:40;;;;;;;39.75;28.38;;;16.10;99.90;;;;;;5119944;27;20429;-70
2023/09/17 04:40:13;;;;;;;36.00;26.85;;;16.50;99.90;;;;;;5119892;27;20047;-70
2023/09/17 04:42:48;;;;;;;38.47;27.88;;;16.90;99.90;;;;;;5119892;27;20114;-70
2023/09/17 04:45:32;;;;;;;34.78;25.80;;;16.20;99.90;;;;;;5102402;27;20039;-70
2023/09/17 04:47:59;;;;;;;36.97;28.98;;;;;;;;;;5119870;27;20045;-70
2023/09/17 04:50:25;;;;;;;36.38;28.67;;;;;;;;;;5102427;27;20450;-70
2023/09/17 04:52:51;;;;;;;35.67;27.95;;;;;;;;;;5119169;27;20054;-70
2023/09/17 04:55:17;;;;;;;40.38;27.98;;;16.90;99.90;;;;;;5119254;27;20479;-70
2023/09/17 04:57:43;;;;;;;40.95;29.23;;;16.00;99.90;;;;;;5119165;27;20051;-70
2023/09/17 05:00:12;;;;;;;47.22;28.50;;;16.40;99.90;;;;;;5119199;27;20043;-70
2023/09/17 05:02:39;;;;;;;37.55;27.13;;;16.20;99.90;;;;;;5119443;27;20481;-70
2023/09/17 05:05:06;;;;;;;33.75;26.25;;;17.30;99.90;;;;;;5124324;27;20099;-70
2023/09/17 05:07:32;;;;;;;36.67;26.70;;;;;;;;;;5134251;27;20051;-70
2023/09/17 05:09:58;;;;;;;37.67;27.23;;;;;;;;;;5118608;27;20043;-70
2023/09/17 05:12:24;;;;;;;33.60;26.30;;;17.10;99.90;;;;;;5138041;27;20035;-70
2023/09/17 05:14:50;;;;;;;32.92;24.85;;;16.40;99.90;;;;;;5136598;27;20077;-70
2023/09/17 05:17:17;;;;;;;36.97;27.73;;;;;;;;;;5102989;27;20500;-69
2023/09/17 05:19:43;;;;;;;40.88;26.60;;;;;;;;;;5102780;27;20046;-70
2023/09/17 05:22:09;;;;;;;36.38;27.00;;;;;;;;;;5102376;27;20031;-70
2023/09/17 05:24:35;;;;;;;41.42;28.30;;;;;;;;;;5119287;27;20039;-70
2023/09/17 05:27:02;;;;;;;33.78;26.63;;;;;;;;;;5119065;27;20506;-70
2023/09/17 05:29:28;;;;;;;36.67;27.23;;;17.20;99.90;;;;;;5118941;27;20084;-70
2023/09/17 05:31:53;;;;;;;35.97;27.13;;;16.10;99.90;;;;;;5101980;27;20038;-70
2023/09/17 05:34:19;;;;;;;37.53;27.90;;;15.50;99.90;;;;;;5101781;27;20475;-70
2023/09/17 05:36:45;;;;;;;41.15;27.58;;;;;;;;;;5118658;27;20039;-70
2023/09/17 05:39:11;;;;;;;36.60;27.65;;;;;;;;;;5118443;27;20055;-70
2023/09/17 05:41:39;;;;;;;37.70;28.70;;;;;;;;;;5118608;27;20054;-70
2023/09/17 05:44:05;;;;;;;36.58;28.35;;;;;;;;;;5118488;27;20046;-70
2023/09/17 05:46:31;;;;;;;42.10;29.35;;;16.20;99.90;;;;;;5118758;27;20058;-70
2023/09/17 05:48:57;;;;;;;40.13;28.70;;;;;;;;;;5137182;27;20039;-70
2023/09/17 05:51:23;;;;;;;40.92;29.42;;;15.50;99.90;;;;;;5118372;27;20478;-70
2023/09/17 05:53:49;;;;;;;40.42;29.48;;;;;;;;;;5136703;27;20092;-70
2023/09/17 05:56:15;;;;;;;38.88;29.45;;;17.20;99.90;;;;;;5118413;27;20070;-70
2023/09/17 05:58:40;;;;;;;38.65;28.88;;;15.10;99.90;;;;;;5118574;27;20093;-70
2023/09/17 06:01:07;;;;;;;43.90;29.05;;;;;;;;;;5118114;27;20047;-70
2023/09/17 06:03:33;;;;;;;34.40;27.38;;;;;;;;;;5118280;27;20078;-75
2023/09/17 06:05:59;;;;;;;38.42;28.27;;;17.10;99.90;;;;;;5117817;27;20407;-75
2023/09/17 06:08:28;;;;;;;38.58;28.33;;;;;;;;;;5117763;27;20039;-75
2023/09/17 06:10:55;;;;;;;38.33;27.77;;;16.60;99.90;;;;;;5118120;27;20502;-75
2023/09/17 06:13:21;;;;;;;42.50;28.70;;;;;;;;;;5100848;27;20046;-76
2023/09/17 06:15:47;;;;;;;38.40;28.13;;;15.40;99.90;;;;;;5101141;27;20047;-75
2023/09/17 06:18:13;;;;;;;39.05;28.35;;;;;;;;;;5100777;27;20398;-75
2023/09/17 06:20:39;;;;;;;31.95;24.77;;;15.60;99.90;;;;;;5118025;27;20046;-75
2023/09/17 06:23:05;;;;;;;37.83;27.15;;;;;;;;;;5117483;27;20039;-75
2023/09/17 06:25:31;;;;;;;36.20;26.85;;;17.70;99.90;;;;;;5100524;27;20127;-75
2023/09/17 06:27:57;;;;;;;35.22;27.48;;;;;;;;;;5117498;27;20038;-70
2023/09/17 06:30:24;;;;;;;36.50;25.67;;;;;;;;;;5117424;27;20039;-70
2023/09/17 06:32:50;;;;;;;33.50;26.48;;;17.70;99.90;;;;;;5100245;27;20035;-70
2023/09/17 06:35:16;;;;;;;33.03;25.17;;;16.40;99.90;;;;;;5117217;27;20039;-70
2023/09/17 06:37:42;;;;;;;39.55;27.02;;;16.80;99.90;;;;;;5117209;27;20043;-76
2023/09/17 06:40:10;;;;;;;32.08;24.27;;;16.60;99.90;;;;;;5117546;27;20051;-75
2023/09/17 06:42:36;;;;;;;36.08;26.30;;;15.70;99.90;;;;;;5117621;27;20062;-75
2023/09/17 06:45:02;;;;;;;32.75;26.50;;;;;;;;;;5117033;27;20483;-75
2023/09/17 06:47:28;;;;;;;38.20;27.10;;;;;;;;;;5116867;27;20043;-75
2023/09/17 06:49:55;;;;;;;37.70;27.60;;;;;;;;;;5117072;27;20043;-75
2023/09/17 06:52:23;;;;;;;36.85;26.55;;;;;;;;;;5099868;27;20055;-75
2023/09/17 06:54:50;;;;;;;35.67;26.48;;;17.50;99.90;;;;;;5135717;27;20103;-76
2023/09/17 06:57:16;;;;;;;35.72;27.85;;;;;;;;;;5100191;27;20154;-75
2023/09/17 06:59:42;;;;;;;36.88;26.02;;;;;;;;;;5117029;27;20046;-75
2023/09/17 07:02:08;;;;;;;34.42;24.75;;;;;;;;;;5117062;27;20031;-70
2023/09/17 07:04:34;;;;;;;38.38;27.15;;;18.00;99.90;;;;;;5116994;27;20057;-70
2023/09/17 07:07:00;;;;;;;37.30;26.42;;;17.20;99.90;;;;;;5099742;27;20482;-70
2023/09/17 07:09:29;;;;;;;39.78;28.15;;;15.80;99.90;;;;;;5135193;27;20047;-70
2023/09/17 07:11:55;;;;;;;36.67;26.23;;;;;;;;;;5116570;27;20042;-70
2023/09/17 07:14:21;;;;;;;39.55;26.92;;;;;;;;;;5116674;27;20043;-70
2023/09/17 07:16:47;;;;;;;36.63;26.50;;;;;;;;;;5099831;27;20039;-70
2023/09/17 07:19:13;;;;;;;30.13;24.00;;;18.20;99.90;;;;;;5116674;27;20095;-70
2023/09/17 07:21:39;;;;;;;35.67;24.73;;;;;;;;;;5116617;27;20051;-70
2023/09/17 07:24:05;;;;;;;37.20;26.80;;;;;;;;;;5116397;27;20054;-70
2023/09/17 07:26:31;;;;;;;38.50;27.15;;;;;;;;;;5099370;27;20035;-70
2023/09/17 07:28:57;;;;;;;38.95;27.35;;;;;;;;;;5116680;27;20039;-70
2023/09/17 07:31:23;;;;;;;36.08;26.48;;;;;;;;;;5099533;27;20053;-70
2023/09/17 07:33:49;;;;;;;33.78;23.83;;;;;;;;;;5116368;27;20035;-75
2023/09/17 07:36:15;;;;;;;32.28;24.60;;;17.80;99.90;;;;;;5116156;27;20550;-76
2023/09/17 07:38:41;;;;;;;40.47;25.70;;;;;;;;;;5116133;27;20149;-76
2023/09/17 07:41:07;;;;;;;32.60;25.27;;;18.10;99.90;;;;;;5099248;27;20399;-75
2023/09/17 07:43:34;;;;;;;31.80;24.33;;;;;;;;;;5116447;27;20073;-76
2023/09/17 07:45:59;;;;;;;38.22;25.58;;;18.00;99.90;;;;;;5099252;27;20039;-68
2023/09/17 07:48:29;;;;;;;32.50;22.55;;;17.40;99.90;;;;;;5099128;27;20042;-69
2023/09/17 07:50:59;;;;;;;32.28;24.58;;;17.00;99.90;;;;;;5116290;27;20055;-70
2023/09/17 07:53:25;;;;;;;33.15;24.17;;;16.70;99.90;;;;;;5098787;28;20510;-76
2023/09/17 07:55:51;;;;;;;37.08;26.30;;;18.20;99.90;;;;;;5116335;27;20055;-75
2023/09/17 07:58:17;;;;;;;33.75;23.05;;;;;;;;;;5115899;27;20045;-75
2023/09/17 08:00:45;;;;;;;33.50;24.70;;;;;;;;;;5115444;28;20103;-75
2023/09/17 08:03:16;;;;;;;35.72;25.13;;;17.40;99.90;;;;;;5098885;27;20043;-74
2023/09/17 08:05:47;;;;;;;37.33;24.10;;;17.30;99.90;;;;;;5098910;27;20483;-70
2023/09/17 08:08:13;;;;;;;34.22;23.23;;;;;;;;;;5099144;27;20070;-69
2023/09/17 08:10:39;;;;;;;38.00;24.55;;;;;;;;;;5082110;27;20051;-69
2023/09/17 08:13:06;;;;;;;37.65;24.92;;;;;;;;;;5115807;28;20050;-69
2023/09/17 08:15:32;;;;;;;33.53;24.25;;;;;;;;;;5116205;28;20090;-70
2023/09/17 08:17:58;;;;;;;35.42;24.85;;;;;;;;;;5099364;27;20043;-69
2023/09/17 08:20:24;;;;;;;32.40;24.00;;;17.80;99.90;;;;;;5099035;28;20070;-70
2023/09/17 08:22:54;;;;;;;33.70;24.98;;;18.30;99.90;;;;;;5115716;28;20452;-74
2023/09/17 08:25:20;;;;;;;33.65;25.38;;;;;;;;;;5116005;28;20255;-75
2023/09/17 08:27:47;;;;;;;34.17;24.30;;;18.40;99.90;;;;;;5116152;28;20172;-75
2023/09/17 08:30:13;;;;;;;34.85;25.45;;;;;;;;;;5099056;28;20103;-75
2023/09/17 08:32:44;;;;;;;33.85;25.50;;;17.80;99.90;;;;;;5116550;28;20043;-75
2023/09/17 08:35:14;;;;;;;35.08;24.73;;;18.00;99.90;;;;;;5116632;28;20043;-75
2023/09/17 08:37:42;;;;;;;37.65;25.58;;;16.20;99.90;;;;;;5116550;28;20394;-75
2023/09/17 08:40:13;;;;;;;36.38;26.08;;;18.50;99.90;;;;;;5099475;28;20070;-75
2023/09/17 08:42:43;;;;;;;35.60;24.17;;;18.40;99.90;;;;;;5130831;28;20055;-75
2023/09/17 08:45:10;;;;;;;38.70;26.65;;;17.40;99.90;;;;;;5137755;28;20316;-70
2023/09/17 08:47:37;;;;;;;40.10;27.33;;;16.70;99.90;;;;;;5137832;28;20035;-70
2023/09/17 08:50:10;;;;;;;36.83;27.27;;;16.70;99.90;;;;;;5137523;28;20047;-70
2023/09/17 08:52:41;;;;;;;35.20;26.55;;;17.80;99.90;;;;;;5137300;28;20059;-74
2023/09/17 08:55:14;;;;;;;37.55;27.67;;;17.40;99.90;;;;;;5136991;28;20050;-75
2023/09/17 08:57:42;;;;;;;35.20;25.60;;;17.50;99.90;;;;;;5125629;28;20031;-75
2023/09/17 09:00:14;;;;;;;36.25;27.15;;;17.30;99.90;;;;;;5124105;28;20482;-75
2023/09/17 09:02:48;;;;;;;38.78;26.85;;;18.50;99.90;;;;;;5123450;28;20152;-75
2023/09/17 09:05:15;;;;;;;38.20;28.10;;;;;;;;;;5119042;28;20042;-74
2023/09/17 09:07:43;;;;;;;37.55;26.35;;;18.50;99.90;;;;;;5115756;28;20122;-75
2023/09/17 09:10:11;;;;;;;41.60;28.65;;;16.80;99.90;;;;;;5115790;27;20100;-69
2023/09/17 09:12:38;;;;;;;41.22;29.20;;;18.50;99.90;;;;;;5119645;27;20043;-69
2023/09/17 09:15:05;;;;;;;37.47;27.13;;;17.20;99.90;;;;;;5120067;27;20125;-69
2023/09/17 09:17:31;;;;;;;39.65;29.05;;;16.70;99.90;;;;;;5102328;27;20043;-69
2023/09/17 09:19:57;;;;;;;36.88;27.27;;;;;;;;;;5119719;27;20039;-69
2023/09/17 09:22:25;;;;;;;43.13;29.90;;;16.40;99.90;;;;;;5119461;27;20100;-69
2023/09/17 09:24:51;;;;;;;43.55;28.27;;;;;;;;;;5102199;27;20118;-69
2023/09/17 09:27:17;;;;;;;37.42;27.75;;;18.50;99.90;;;;;;5119027;27;20046;-69
2023/09/17 09:29:43;;;;;;;45.15;27.60;;;18.30;99.90;;;;;;5119126;27;20057;-74
2023/09/17 09:32:10;;;;;;;40.15;28.90;;;16.50;99.90;;;;;;5102183;27;20031;-69
2023/09/17 09:34:43;;;;;;;31.88;24.52;;;18.10;99.90;;;;;;5118991;27;20488;-68
2023/09/17 09:37:10;;;;;;;40.60;28.83;;;17.00;99.90;;;;;;5102111;27;20085;-69
2023/09/17 09:39:36;;;;;;;39.60;27.73;;;17.50;99.90;;;;;;5118742;27;20122;-68
2023/09/17 09:42:04;;;;;;;34.78;25.88;;;18.40;99.90;;;;;;5118818;27;20164;-68
2023/09/17 09:44:31;;;;;;;37.92;26.67;;;17.60;99.90;;;;;;5118722;27;20047;-73
2023/09/17 09:47:00;;;;;;;37.17;26.52;;;18.40;99.90;;;;;;5118642;27;20043;-72
2023/09/17 09:49:26;;;;;;;35.38;24.52;;;18.50;99.90;;;;;;5102380;27;20126;-72
2023/09/17 09:51:52;;;;;;;37.70;26.02;;;16.50;99.90;;;;;;5118621;27;20505;-73
2023/09/17 09:54:18;;;;;;;31.77;23.33;;;16.20;99.90;;;;;;5101289;27;20051;-73
2023/09/17 09:56:47;;;;;;;29.95;21.10;;;18.30;99.90;;;;;;5118622;27;20062;-73
2023/09/17 09:59:16;;;;;;;28.05;21.25;;;17.10;99.90;;;;;;5118420;27;20054;-73
2023/09/17 10:01:42;;;;;;;29.80;21.27;;;16.10;99.90;;;;;;5118825;27;20046;-68
2023/09/17 10:04:09;;;;;;;30.63;22.15;;;17.30;99.90;;;;;;5118651;27;20039;-73
2023/09/17 10:06:37;;;;;;;27.52;21.25;;;17.10;99.90;;;;;;5118743;27;20092;-73
2023/09/17 10:09:06;;;;;;;28.75;21.50;;;18.20;99.90;;;;;;5118384;27;20074;-73
2023/09/17 10:11:32;;;;;;;33.75;22.77;;;;;;;;;;5101127;27;20046;-72
2023/09/17 10:14:20;;;;;;;34.17;22.52;;;17.40;99.90;;;;;;5118557;27;20039;-72
2023/09/17 10:16:49;;;;;;;28.27;22.25;;;17.00;99.90;;;;;;5118091;27;20075;-73
2023/09/17 10:19:20;;;;;;;30.17;21.58;;;16.90;99.90;;;;;;5118328;27;20058;-73
2023/09/17 10:21:50;;;;;;;32.95;21.80;;;17.40;99.90;;;;;;5136081;27;20046;-72
2023/09/17 10:24:17;;;;;;;32.40;23.38;;;17.30;99.90;;;;;;5136018;27;20534;-68
2023/09/17 10:26:44;;;;;;;32.72;23.40;;;17.40;99.90;;;;;;5100646;27;20042;-72
2023/09/17 10:29:12;;;;;;;32.75;23.77;;;17.10;99.90;;;;;;5136151;27;20081;-72
2023/09/17 10:31:40;;;;;;;34.08;22.40;;;16.20;99.90;;;;;;5117778;27;20032;-72
2023/09/17 10:34:08;;;;;;;28.08;20.52;;;17.40;99.90;;;;;;5117629;27;20078;-73
2023/09/17 10:36:34;;;;;;;24.88;18.80;;;;;;;;;;5117663;27;20407;-73
2023/09/17 10:39:00;;;;;;;26.08;17.85;;;16.80;99.90;;;;;;5117627;27;20043;-73
2023/09/17 10:41:31;;;;;;;22.92;16.48;;;16.30;99.90;;;;;;5083882;27;20050;-72
2023/09/17 10:43:58;;;;;;;19.13;15.80;;;16.30;99.90;;;;;;5117531;27;20050;-73
2023/09/17 10:46:24;;;;;;;21.27;16.40;;;;;;;;;;5100665;27;20039;-73
2023/09/17 10:48:53;;;;;;;21.88;16.70;;;17.90;99.90;;;;;;5100508;27;20032;-72
2023/09/17 10:51:20;;;;;;;25.30;17.27;;;18.10;99.90;;;;;;5117631;27;20042;-72
2023/09/17 10:53:45;;;;;;;20.42;16.95;;;18.10;99.90;;;;;;5117328;27;20429;-72
2023/09/17 10:56:15;;;;;;;23.33;17.17;;;17.80;99.90;;;;;;5117351;27;20058;-72
2023/09/17 10:58:52;;;;;;;24.52;15.68;;;17.50;99.90;;;;;;5100831;27;20498;-72
2023/09/17 11:01:24;;;;;;;23.70;17.17;;;17.10;99.90;;;;;;5117431;27;20050;-72
2023/09/17 11:04:01;;;;;;;24.27;17.30;;;17.30;99.90;;;;;;5117382;27;20035;-72
2023/09/17 11:06:29;;;;;;;20.63;17.10;;;18.10;99.90;;;;;;5117046;27;20043;-72
2023/09/17 11:08:56;;;;;;;22.98;17.25;;;17.70;99.90;;;;;;5100410;27;20045;-72
2023/09/17 11:11:24;;;;;;;19.65;16.60;;;16.40;99.90;;;;;;5117127;27;20043;-73
2023/09/17 11:13:51;;;;;;;18.08;15.98;;;17.30;99.90;;;;;;5100260;27;20051;-72
2023/09/17 11:16:23;;;;;;;19.33;16.83;;;17.20;99.90;;;;;;5100318;27;20039;-72
2023/09/17 11:19:03;;;;;;;21.30;15.48;;;16.90;99.90;;;;;;5100142;27;20502;-71
2023/09/17 11:21:29;;;;;;;18.55;15.05;;;;;;;;;;5116766;27;20072;-68
2023/09/17 11:23:55;;;;;;;17.92;14.40;;;;;;;;;;5116670;27;20499;-68
2023/09/17 11:26:26;;;;;;;19.25;14.40;;;18.40;99.90;;;;;;5117004;27;20035;-67
2023/09/17 11:28:57;;;;;;;16.33;13.27;;;16.40;99.90;;;;;;5116812;27;20062;-67
2023/09/17 11:31:26;;;;;;;19.05;14.20;;;17.60;99.90;;;;;;5116782;27;20406;-68
2023/09/17 11:33:52;;;;;;;17.85;13.52;;;18.50;99.90;;;;;;5116855;27;20383;-68
2023/09/17 11:36:19;;;;;;;18.50;14.30;;;16.80;99.90;;;;;;5116555;27;20042;-68
2023/09/17 11:38:48;;;;;;;18.33;13.30;;;17.50;99.90;;;;;;5099989;27;20111;-67
2023/09/17 11:41:16;;;;;;;17.65;13.95;;;;;;;;;;5116740;27;20122;-68
2023/09/17 11:43:50;;;;;;;17.77;13.40;;;18.30;99.90;;;;;;5116881;27;20053;-67
2023/09/17 11:46:17;;;;;;;15.35;12.30;;;17.50;99.90;;;;;;5116627;27;20039;-68
2023/09/17 11:48:44;;;;;;;14.73;12.43;;;17.30;99.90;;;;;;5116433;27;20035;-67
2023/09/17 11:51:22;;;;;;;18.30;12.45;;;17.20;99.90;;;;;;5116760;27;20057;-67
2023/09/17 11:53:55;;;;;;;14.88;12.50;;;17.20;99.90;;;;;;5099051;27;20058;-67
2023/09/17 11:56:21;;;;;;;14.30;11.60;;;;;;;;;;5116634;27;20073;-67
2023/09/17 11:59:17;;;;;;;15.15;12.88;;;16.10;99.90;;;;;;5116386;27;20047;-67
2023/09/17 12:01:52;;;;;;;16.23;12.80;;;17.50;99.90;;;;;;5099442;27;20047;-67
2023/09/17 12:04:22;;;;;;;16.02;12.60;;;17.40;99.90;;;;;;5117320;27;20372;-67
2023/09/17 12:06:50;;;;;;;19.75;12.85;;;16.20;99.90;;;;;;5135167;27;20035;-67
2023/09/17 12:09:41;;;;;;;18.85;12.93;;;18.50;99.90;;;;;;5116793;27;20043;-68
2023/09/17 12:12:07;;;;;;;18.02;13.32;;;18.40;99.90;;;;;;5100382;27;20039;-72
2023/09/17 12:14:34;;;;;;;22.73;14.30;;;18.10;99.90;;;;;;5131494;27;20076;-73
2023/09/17 12:17:03;;;;;;;18.58;14.73;;;18.50;99.90;;;;;;5121955;28;20047;-72
2023/09/17 12:19:30;;;;;;;17.42;14.32;;;;;;;;;;5138776;27;20035;-72
2023/09/17 12:22:00;;;;;;;19.65;14.73;;;18.50;99.90;;;;;;5138291;28;20039;-71
2023/09/17 12:27:35;;;;;;;19.45;15.57;;;18.90;99.90;;;;;;5129741;28;20043;-68
2023/09/17 12:30:05;;;;;;;18.25;15.77;;;18.20;99.90;;;;;;5098762;28;20126;-68
2023/09/17 12:32:33;;;;;;;20.33;15.80;;;19.00;99.90;;;;;;5115506;28;20555;-68
2023/09/17 12:34:59;;;;;;;21.40;17.00;;;;;;;;;;5115586;28;20072;-68
2023/09/17 12:37:26;;;;;;;19.60;17.45;;;18.30;99.90;;;;;;5098565;28;20035;-68
2023/09/17 12:39:53;;;;;;;24.98;18.17;;;;;;;;;;5115609;28;20099;-68
2023/09/17 12:42:20;;;;;;;23.55;18.50;;;;;;;;;;5115793;28;20031;-68
2023/09/17 12:44:47;;;;;;;21.52;18.55;;;;;;;;;;5116201;27;20054;-68
2023/09/17 12:47:13;;;;;;;24.60;20.05;;;19.30;99.90;;;;;;5119335;27;20047;-73
2023/09/17 12:49:40;;;;;;;23.58;19.63;;;17.40;99.90;;;;;;5086027;27;20116;-72
2023/09/17 12:52:06;;;;;;;23.13;19.63;;;;;;;;;;5119500;27;20506;-68
2023/09/17 12:54:32;;;;;;;26.38;20.58;;;18.50;99.90;;;;;;5115816;28;20093;-68
2023/09/17 12:56:59;;;;;;;28.00;19.95;;;17.60;99.90;;;;;;5115989;28;20507;-68
2023/09/17 12:59:39;;;;;;;27.25;20.77;;;19.80;99.90;;;;;;5117078;28;20089;-68
2023/09/17 13:02:06;;;;;;;26.27;20.05;;;18.10;99.90;;;;;;5099337;28;20043;-68
2023/09/17 13:04:37;;;;;;;23.98;19.70;;;19.10;99.90;;;;;;5115864;28;20050;-68
2023/09/17 13:07:05;;;;;;;24.65;18.02;;;18.30;99.90;;;;;;5098742;28;20048;-68